New Orleans, LA (70145)

7:38 PM CDT on August 28, 2016 (GMT -0500)
Bywater | | Change Station

Elev 3 ft 29.96 °N, 90.03 °W | Updated 4 seconds ago

Partly Cloudy
Partly Cloudy
79.4 °F
Feels Like 84 °F
N
0.0
Wind Variable Wind from SW
Gusts 2.0 mph

Today
High -- | Low -- °F
--% Chance of Precip.
Yesterday
High -- | Low -- °F
Precip. -- in
Pressure 29.94 in
Visibility 10.0 miles
Clouds Few 8000 ft
Few 12000 ft
Heat Index 84 °F
Dew Point 75 °F
Humidity 87%
Rainfall 0.09 in
Snow Depth Not available.
6:35 AM 7:26 PM
Waning Crescent, 12% visible
METAR KNEW 282353Z AUTO 09009KT 10SM FEW080 FEW120 26/24 A2996 RMK AO2 RAB13E47 SLP139 P0002 60002 T02610239 10294 20261 58005
Pressure 29.94 in
Visibility 10.0 miles
Clouds Few 8000 ft
Few 12000 ft
Heat Index 84 °F
Dew Point 75 °F
Humidity 87%
Rainfall 0.09 in
Snow Depth Not available.
6:35 AM 7:26 PM
Waning Crescent, 12% visible
METAR KNEW 282353Z AUTO 09009KT 10SM FEW080 FEW120 26/24 A2996 RMK AO2 RAB13E47 SLP139 P0002 60002 T02610239 10294 20261 58005

10-Day Weather Forecast

Almanac

Astronomy

Aug. 28, 2016 Rise Set
Actual Time
Civil Twilight
Nautical Twilight
Astronomical Twilight
Moon
Length of Visible Light
Length of Day
Tomorrow will be .
, % of the Moon is Illuminated

Today's Extremes

State Highs State Lows

Community

WunderPhotos

Upload Photos

1,935,743 photos uploaded!

WunderBlog® & News

Nearby

Air Quality

  Air Quality AQ Index Pollutant
Not available.

Snow Depth

Station Depth Elevation

Earthquake Activity

City Distance Mag. Time & Date
Minimum magnitude displayed is 2.5.

Coastal Water Temperatures

Place Temperature

Stations

Nearby Weather Stations

Station Location Temp. Windchill Dew Point Humidity Wind Precip. Elev Updated Type
                   

Watches & Warnings

There are currently no watches in effect.